AIRPORT_AIRPORT_METAR
METAR FOR LIEE
ADDS - METARS form results

(1856 UTC 25 September 2021)
Data provider http://aviationweather.gov/metar/data/
 
METAR text: LIEE 251850Z 17009KT 8000 FEW010 26/24 Q1018
Conditions at: LIEE (CAGLIARI/ELMAS(A, IT) observed 1850 UTC 25 September 2021
Temperature: 26.0°C (79°F)
Dewpoint: 24.0°C (75°F) [RH = 89%]
Pressure (altimeter): 30.06 inches Hg (1018.0 mb)
Winds: from the S (170 degrees) at 10 MPH (9 knots; 4.6 m/s)
Visibility: 5 miles ( 8 km)
Ceiling: at least 12,000 feet AGL
Clouds: few clouds at 1000 feet AGL
Weather: no significant weather observed at this time

METAR text: LIEE 251820Z 17008KT 8000 FEW010 26/24 Q1018
Conditions at: LIEE (CAGLIARI/ELMAS(A, IT) observed 1820 UTC 25 September 2021
Temperature: 26.0°C (79°F)
Dewpoint: 24.0°C (75°F) [RH = 89%]
Pressure (altimeter): 30.06 inches Hg (1018.0 mb)
Winds: from the S (170 degrees) at 9 MPH (8 knots; 4.1 m/s)
Visibility: 5 miles ( 8 km)
Ceiling: at least 12,000 feet AGL
Clouds: few clouds at 1000 feet AGL
Weather: no significant weather observed at this time

Forecast for: LIEE (CAGLIARI/ELMAS(A, IT)
Text: TAF LIEE 251700Z 2518/2618 16012KT 9999 SCT040
Forecast period: 1800 UTC 25 September 2021 to 1800 UTC 26 September 2021
Forecast type: FROM: standard forecast or significant change
Winds: from the SSE (160 degrees) at 14 MPH (12 knots; 6.2 m/s)
Visibility: 6 or more miles (10+ km)
Ceiling: at least 12,000 feet AGL
Clouds: scattered clouds at 4000 feet AGL
Weather: no significant weather forecast for this period

 AIRPORT_AIRPORT_MAP

 AIRPORT_RUNWAY_INFO
AIRPORT_RUNWAY 14 AIRPORT_RUNWAY_LENGTH 9196 ft AIRPORT_RUNWAY_WIDTH 148 ft
AIRPORT_RUNWAY_ELEVATION 9 ft AIRPORT_RUNWAY_THRESHOLD 0 ft AIRPORT_RUNWAY_HEADING 138
AIRPORT_RUNWAY 32 AIRPORT_RUNWAY_LENGTH 9196 ft AIRPORT_RUNWAY_WIDTH 148 ft
AIRPORT_RUNWAY_ELEVATION 4 ft AIRPORT_RUNWAY_THRESHOLD 0 ft AIRPORT_RUNWAY_HEADING 318

 AIRPORT_AIRPORT_FREQUENCIES
AIRPORT_AIRPORT_NAVAIDS_TYPE APP AIRPORT_AIRPORT_NAVAIDS_NAME CAGLIARI A AIRPORT_AIRPORT_NAVAIDS_FREQ 118.75 MHZ
AIRPORT_AIRPORT_NAVAIDS_TYPE GND AIRPORT_AIRPORT_NAVAIDS_NAME Elmas GND AIRPORT_AIRPORT_NAVAIDS_FREQ 125.425 MHZ
AIRPORT_AIRPORT_NAVAIDS_TYPE MISC AIRPORT_AIRPORT_NAVAIDS_NAME SAR AIRPORT_AIRPORT_NAVAIDS_FREQ 123.1 MHZ
AIRPORT_AIRPORT_NAVAIDS_TYPE TWR AIRPORT_AIRPORT_NAVAIDS_NAME TWR AIRPORT_AIRPORT_NAVAIDS_FREQ 120.6 MHZ

 AIRPORT_AIRPORT_NAVAIDS
AIRPORT_AIRPORT_NAVAIDS_TYPE VOR-DME AIRPORT_AIRPORT_NAVAIDS_NAME Cagliari AIRPORT_AIRPORT_NAVAIDS_FREQ 113400 KHZ
AIRPORT_AIRPORT_NAVAIDS_TYPE NDB AIRPORT_AIRPORT_NAVAIDS_NAME Cagliari AIRPORT_AIRPORT_NAVAIDS_FREQ 371 KHZ



Copyright © 2005-2021 - Virtuel Air Alsace - Tous droits réservés